Página principal
METAR-TAF:

METAR-TAF

Aeroportos :

Nakhon Si Thammarat, Tailândia

latitude: 8-32-22N, longitude: 99-56-41E, altura: 4 m

Observação actual do tempo

O boletim foi feito há 17 minutos, às 05:00 UTC
Vento 9 kt de este, variando entre es-nordeste e es-sudeste
Temperatura 31°C
Humidade 84%
Pressão 1013 hPa
Visibilidade 10 km ou mais
Nuvens dispersasa uma altura de 1800 ft

METAR: VTSF 230500Z 09009KT 060V120 9999 SCT018 31/28 Q1013 NOSIG

Hora: 12:17 (05:17 UTC)

Previsão

O boletim foi feito há 6 horas e 17 minutos, às 23:00 UTC
Previsão válida de 23 às 00 UTC a 23 às 24 UTC
Vento 8 kt de este
Visibilidade 10 km ou mais
Poucas nuvensa uma altura de 2000 ft

TAF: VTSF 222300Z 2300/2324 10008KT 9999 FEW020

Observações e previsões do tempo de mais de 4000 aeroportos (mensagens METAR e TAF).

As estações disponíveis são os pontos amarelos e vermelhos sobre o mapa.

Mova o rato sobre o mapa para ver o nome da estação.

Depois clique no ponto para visualizar as observações e previsões meteorológicas.

Para alterar o mapa : clique nos botões verdes com uma cruz preta para aumentar o zoom; no botão verde com uma pitada de zoom; ou nas setas verdes para mapas adjacentes.


METAR-TAF: